Time;durP1;ratioP1;P1;durP2;ratioP2;P2;SDS_P1;SDS_P2;PMS_P1;PMS_P2;Temp;Humidity;BMP_temperature;BMP_pressure;BME280_temperature;BME280_humidity;BME280_pressure;Samples;Min_cycle;Max_cycle;Signal;HPM_P1;HPM_P2
2023/08/10 00:00:08;;;;;;;10.43;5.95;;;;;;;;;;9999811;28;20148;-74
2023/08/10 00:05:05;;;;;;;8.00;5.18;;;;;;;;;;9999404;28;20080;-74
2023/08/10 00:10:02;;;;;;;7.40;5.60;;;;;;;;;;9999324;28;20059;-74
2023/08/10 00:14:58;;;;;;;13.35;6.03;;;;;;;;;;10013252;29;20134;-75
2023/08/10 00:19:55;;;;;;;9.20;5.78;;;;;;;;;;10017697;28;20517;-74
2023/08/10 00:24:51;;;;;;;12.32;6.40;;;;;;;;;;10050945;28;20043;-74
2023/08/10 00:29:48;;;;;;;7.13;5.68;;;;;;;;;;10005456;28;20067;-74
2023/08/10 00:34:44;;;;;;;11.50;5.70;;;;;;;;;;9997974;28;20056;-74
2023/08/10 00:39:40;;;;;;;13.02;5.80;;;;;;;;;;9996843;28;20087;-74
2023/08/10 00:44:37;;;;;;;8.98;6.00;;;;;;;;;;10022415;28;20421;-74
2023/08/10 00:49:33;;;;;;;10.77;5.50;;;;;;;;;;10074148;28;20082;-74
2023/08/10 00:54:30;;;;;;;7.72;5.53;;;;;;;;;;10039417;28;20082;-74
2023/08/10 00:59:27;;;;;;;7.13;5.60;;;;;;;;;;10035306;28;20051;-74
2023/08/10 01:04:23;;;;;;;10.00;5.97;;;;;;;;;;10059931;28;20090;-74
2023/08/10 01:09:28;;;;;;;7.18;5.55;;;;;;;;;;10069000;28;20184;-74
2023/08/10 01:14:45;;;;;;;6.53;5.35;;;;;;;;;;10045479;28;20126;-74
2023/08/10 01:19:42;;;;;;;12.48;5.97;;;;;;;;;;10059929;28;20048;-74
2023/08/10 01:24:40;;;;;;;8.88;5.82;;;;;;;;;;10034502;28;20056;-74
2023/08/10 01:29:37;;;;;;;7.05;5.53;;;;;;;;;;10030937;28;20051;-75
2023/08/10 01:34:34;;;;;;;6.53;5.43;;;;;;;;;;10046049;28;20056;-74
2023/08/10 01:39:32;;;;;;;7.53;5.43;;;;;;;;;;10029389;28;20063;-74
2023/08/10 01:44:28;;;;;;;8.63;5.55;;;;;;;;;;9995745;28;20067;-74
2023/08/10 01:49:25;;;;;;;11.20;5.63;;;;;;;;;;9995445;28;20430;-74
2023/08/10 01:54:21;;;;;;;7.60;5.10;;;;;;;;;;10015998;28;20051;-74
2023/08/10 01:59:18;;;;;;;9.68;5.28;;;;;;;;;;10005064;28;20506;-74
2023/08/10 02:04:14;;;;;;;7.63;5.40;;;;;;;;;;10013588;28;20051;-74
2023/08/10 02:09:11;;;;;;;8.07;5.65;;;;;;;;;;10003667;28;20514;-74
2023/08/10 02:14:07;;;;;;;6.60;5.43;;;;;;;;;;10001339;28;20506;-74
2023/08/10 02:19:04;;;;;;;9.10;5.18;;;;;;;;;;10031455;28;20082;-74
2023/08/10 02:24:00;;;;;;;7.72;5.25;;;;;;;;;;10039538;28;20055;-74
2023/08/10 02:28:56;;;;;;;8.15;5.80;;;;;;;;;;10070901;28;20063;-74
2023/08/10 02:33:52;;;;;;;12.18;6.03;;;;;;;;;;10012621;28;20052;-74
2023/08/10 02:38:49;;;;;;;9.40;5.68;;;;;;;;;;9994146;28;20522;-74
2023/08/10 02:43:45;;;;;;;9.38;5.95;;;;;;;;;;10052929;28;20421;-74
2023/08/10 02:48:41;;;;;;;11.15;5.65;;;;;;;;;;10035332;28;20639;-74
2023/08/10 02:53:38;;;;;;;12.20;6.05;;;;;;;;;;10002511;28;20054;-75
2023/08/10 02:58:34;;;;;;;9.32;5.50;;;;;;;;;;10033316;28;20060;-73
2023/08/10 03:03:31;;;;;;;8.15;5.80;;;;;;;;;;9993189;28;20064;-75
2023/08/10 03:08:46;;;;;;;9.10;6.47;;;;;;;;;;9992993;28;20056;-73
2023/08/10 03:13:43;;;;;;;7.85;6.50;;;;;;;;;;10003490;28;20097;-74
2023/08/10 03:18:39;;;;;;;11.98;6.93;;;;;;;;;;10031173;28;20075;-74
2023/08/10 03:23:35;;;;;;;9.68;7.00;;;;;;;;;;10034823;28;20113;-74
2023/08/10 03:28:32;;;;;;;11.48;6.22;;;;;;;;;;10064517;28;20438;-73
2023/08/10 03:33:28;;;;;;;7.85;6.20;;;;;;;;;;10030470;28;20047;-74
2023/08/10 03:38:24;;;;;;;8.30;6.80;;;;;;;;;;10070264;28;20501;-74
2023/08/10 03:43:22;;;;;;;9.20;6.45;;;;;;;;;;10045699;28;20064;-74
2023/08/10 03:48:18;;;;;;;12.38;6.50;;;;;;;;;;10024831;28;20078;-74
2023/08/10 03:53:14;;;;;;;9.32;6.78;;;;;;;;;;9995656;28;20544;-74
2023/08/10 03:58:10;;;;;;;10.50;7.22;;;;;;;;;;10069338;28;20059;-74
2023/08/10 04:03:07;;;;;;;12.07;6.38;;;;;;;;;;10034821;28;20118;-74
2023/08/10 04:08:03;;;;;;;8.77;6.00;;;;;;;;;;10030015;28;20052;-74
2023/08/10 04:13:00;;;;;;;12.35;6.65;;;;;;;;;;10030647;28;20055;-74
2023/08/10 04:17:56;;;;;;;12.63;6.70;;;;;;;;;;10033604;28;20090;-73
2023/08/10 04:22:54;;;;;;;9.73;6.75;;;;;;;;;;9991647;28;20055;-74
2023/08/10 04:28:04;;;;;;;10.20;6.88;;;;;;;;;;9991698;28;20568;-74
2023/08/10 04:33:00;;;;;;;11.25;7.25;;;;;;;;;;9991650;28;20126;-74
2023/08/10 04:37:56;;;;;;;9.70;7.38;;;;;;;;;;10007775;28;20513;-74
2023/08/10 04:42:53;;;;;;;11.27;6.53;;;;;;;;;;9995672;28;20048;-74
2023/08/10 04:47:49;;;;;;;9.77;6.43;;;;;;;;;;9997849;28;20068;-74
2023/08/10 04:52:46;;;;;;;9.82;6.43;;;;;;;;;;9998122;28;20056;-74
2023/08/10 04:57:42;;;;;;;9.15;6.57;;;;;;;;;;9997660;28;20056;-73
2023/08/10 05:02:39;;;;;;;8.02;6.43;;;;;;;;;;9996344;28;20087;-74
2023/08/10 05:07:37;;;;;;;11.95;7.30;;;;;;;;;;10054758;28;20052;-74
2023/08/10 05:12:34;;;;;;;9.07;6.70;;;;;;;;;;9997173;28;20510;-73
2023/08/10 05:17:31;;;;;;;19.05;7.57;;;;;;;;;;10044589;28;20056;-74
2023/08/10 05:22:27;;;;;;;8.00;6.50;;;;;;;;;;10033928;28;20076;-74
2023/08/10 05:27:23;;;;;;;11.00;7.00;;;;;;;;;;10064788;28;20052;-73
2023/08/10 05:32:20;;;;;;;10.10;6.35;;;;;;;;;;10039486;28;20102;-74
2023/08/10 05:37:17;;;;;;;11.45;7.35;;;;;;;;;;9996201;28;20083;-74
2023/08/10 05:42:13;;;;;;;12.60;7.28;;;;;;;;;;9996825;28;20056;-73
2023/08/10 05:47:10;;;;;;;12.15;7.00;;;;;;;;;;10060803;28;20047;-73
2023/08/10 05:52:06;;;;;;;11.90;6.88;;;;;;;;;;10030571;28;20514;-73
2023/08/10 05:57:02;;;;;;;14.85;8.95;;;;;;;;;;10058202;28;20575;-74
2023/08/10 06:01:59;;;;;;;9.63;7.10;;;;;;;;;;10024367;28;20048;-74
2023/08/10 06:06:55;;;;;;;8.38;7.47;;;;;;;;;;9993135;28;20048;-73
2023/08/10 06:11:54;;;;;;;11.95;7.30;;;;;;;;;;9995726;28;20052;-73
2023/08/10 06:16:50;;;;;;;11.27;7.03;;;;;;;;;;9994511;28;20048;-74
2023/08/10 06:21:47;;;;;;;9.27;7.45;;;;;;;;;;10023646;28;20063;-73
2023/08/10 06:26:43;;;;;;;12.50;7.78;;;;;;;;;;10062028;28;20528;-74
2023/08/10 06:31:40;;;;;;;10.55;8.57;;;;;;;;;;9994810;28;20064;-74
2023/08/10 06:36:36;;;;;;;9.85;6.93;;;;;;;;;;10022854;28;20056;-74
2023/08/10 06:41:32;;;;;;;9.05;7.03;;;;;;;;;;9994473;28;20052;-73
2023/08/10 06:46:29;;;;;;;11.70;6.90;;;;;;;;;;10040206;28;20052;-73
2023/08/10 06:51:25;;;;;;;10.25;6.60;;;;;;;;;;10032814;28;20063;-74
2023/08/10 06:56:22;;;;;;;11.13;7.38;;;;;;;;;;10013954;28;20052;-73
2023/08/10 07:01:18;;;;;;;9.48;7.28;;;;;;;;;;9993706;28;20051;-74
2023/08/10 07:06:16;;;;;;;8.75;6.68;;;;;;;;;;10006130;28;20106;-73
2023/08/10 07:11:16;;;;;;;11.90;7.13;;;;;;;;;;9993180;28;20056;-74
2023/08/10 07:16:12;;;;;;;13.07;7.22;;;;;;;;;;9999378;28;20067;-74
2023/08/10 07:21:09;;;;;;;11.77;6.85;;;;;;;;;;9993036;28;20102;-74
2023/08/10 07:26:05;;;;;;;15.38;7.40;;;;;;;;;;10046114;28;20063;-73
2023/08/10 07:31:02;;;;;;;11.10;7.35;;;;;;;;;;10066380;28;20142;-73
2023/08/10 07:35:59;;;;;;;7.38;6.65;;;;;;;;;;10038556;28;20100;-73
2023/08/10 07:40:55;;;;;;;13.48;5.80;;;;;;;;;;10060529;28;20052;-74
2023/08/10 07:45:51;;;;;;;15.15;6.75;;;;;;;;;;10035751;28;20067;-73
2023/08/10 07:50:48;;;;;;;8.68;5.60;;;;;;;;;;10044353;28;20056;-73
2023/08/10 07:55:45;;;;;;;11.40;6.68;;;;;;;;;;9992356;28;20058;-73
2023/08/10 08:00:41;;;;;;;8.18;6.65;;;;;;;;;;10014943;28;20518;-74
2023/08/10 08:05:38;;;;;;;7.90;5.90;;;;;;;;;;10050554;28;20055;-73
2023/08/10 08:10:35;;;;;;;10.68;5.80;;;;;;;;;;10002547;28;20063;-74
2023/08/10 08:15:34;;;;;;;12.57;6.38;;;;;;;;;;10024828;28;20118;-73
2023/08/10 08:20:30;;;;;;;12.32;6.22;;;;;;;;;;9998027;28;20059;-74
2023/08/10 08:25:28;;;;;;;14.00;6.88;;;;;;;;;;10012474;28;20048;-73
2023/08/10 08:30:26;;;;;;;9.27;6.32;;;;;;;;;;10027777;28;20469;-73
2023/08/10 08:35:22;;;;;;;9.57;6.38;;;;;;;;;;10042254;28;20054;-73
2023/08/10 08:40:19;;;;;;;16.77;6.22;;;;;;;;;;10063111;28;20059;-72
2023/08/10 08:45:16;;;;;;;8.02;5.85;;;;;;;;;;9997710;28;20103;-73
2023/08/10 08:50:14;;;;;;;7.18;5.63;;;;;;;;;;9998068;28;20056;-74
2023/08/10 08:55:11;;;;;;;9.13;5.75;;;;;;;;;;10030589;28;20788;-73
2023/08/10 09:00:08;;;;;;;10.27;6.72;;;;;;;;;;10047622;28;20064;-73
2023/08/10 09:05:05;;;;;;;7.70;5.63;;;;;;;;;;10029191;28;20059;-74
2023/08/10 09:10:02;;;;;;;8.65;6.25;;;;;;;;;;10045747;28;20079;-73
2023/08/10 09:15:05;;;;;;;12.90;6.90;;;;;;;;;;9997101;29;20086;-72
2023/08/10 09:20:05;;;;;;;11.68;6.18;;;;;;;;;;10061118;28;20068;-74
2023/08/10 09:25:02;;;;;;;9.25;5.20;;;;;;;;;;10028430;28;20493;-73
2023/08/10 09:29:59;;;;;;;13.07;6.53;;;;;;;;;;10176004;28;20058;-73
2023/08/10 09:34:55;;;;;;;9.80;6.70;;;;;;;;;;10011067;28;20664;-72
2023/08/10 09:39:56;;;;;;;9.50;6.47;;;;;;;;;;9995975;28;20056;-72
2023/08/10 09:44:53;;;;;;;7.53;5.25;;;;;;;;;;10017283;28;20068;-72
2023/08/10 09:49:56;;;;;;;10.98;6.20;;;;;;;;;;10010285;28;20056;-73
2023/08/10 09:54:54;;;;;;;8.57;5.72;;;;;;;;;;9995141;28;20090;-72
2023/08/10 09:59:54;;;;;;;11.30;6.05;;;;;;;;;;9995591;28;20498;-73
2023/08/10 10:04:50;;;;;;;11.10;6.70;;;;;;;;;;10037424;28;20043;-73
2023/08/10 10:09:49;;;;;;;8.52;6.00;;;;;;;;;;10072522;28;20053;-73
2023/08/10 10:14:47;;;;;;;10.35;6.43;;;;;;;;;;10056615;28;20140;-73
2023/08/10 10:19:44;;;;;;;13.95;5.95;;;;;;;;;;10071917;28;20437;-74
2023/08/10 10:24:41;;;;;;;8.38;6.82;;;;;;;;;;9995569;28;20056;-74
2023/08/10 10:29:37;;;;;;;10.60;6.47;;;;;;;;;;9994311;28;20695;-74
2023/08/10 10:34:34;;;;;;;11.80;6.55;;;;;;;;;;9994330;28;20403;-74
2023/08/10 10:39:31;;;;;;;10.68;6.72;;;;;;;;;;9992046;28;20099;-74
2023/08/10 10:44:54;;;;;;;9.13;6.43;;;;;;;;;;10002228;28;20743;-73
2023/08/10 10:49:54;;;;;;;7.65;5.95;;;;;;;;;;9999951;28;20118;-73
2023/08/10 10:54:51;;;;;;;8.13;6.30;;;;;;;;;;10036232;28;20117;-73
2023/08/10 10:59:51;;;;;;;10.02;5.90;;;;;;;;;;10070949;28;20472;-73
2023/08/10 11:04:47;;;;;;;10.70;5.70;;;;;;;;;;10036731;28;20047;-74
2023/08/10 11:09:43;;;;;;;6.93;5.72;;;;;;;;;;10060033;28;20044;-73
2023/08/10 11:14:41;;;;;;;7.60;6.20;;;;;;;;;;10018749;28;20085;-74
2023/08/10 11:19:37;;;;;;;8.27;6.10;;;;;;;;;;10062207;28;20150;-73
2023/08/10 11:24:34;;;;;;;7.72;5.85;;;;;;;;;;10043602;28;20067;-72
2023/08/10 11:29:30;;;;;;;11.73;6.30;;;;;;;;;;10058315;28;20055;-73
2023/08/10 11:34:26;;;;;;;7.72;5.88;;;;;;;;;;10031488;28;20105;-73
2023/08/10 11:39:23;;;;;;;15.00;5.75;;;;;;;;;;10016559;28;20466;-73
2023/08/10 11:44:23;;;;;;;10.32;5.38;;;;;;;;;;9992436;28;20048;-72
2023/08/10 11:49:19;;;;;;;7.85;6.00;;;;;;;;;;10017729;28;20109;-73
2023/08/10 11:54:17;;;;;;;9.02;5.85;;;;;;;;;;10040210;28;20499;-73
2023/08/10 11:59:14;;;;;;;7.95;5.53;;;;;;;;;;10030363;28;20075;-73
2023/08/10 12:04:11;;;;;;;11.82;5.82;;;;;;;;;;10037355;28;20121;-73
2023/08/10 12:09:11;;;;;;;8.85;5.97;;;;;;;;;;10068049;28;20048;-72
2023/08/10 12:14:08;;;;;;;8.27;5.57;;;;;;;;;;10037070;28;20055;-73
2023/08/10 12:19:04;;;;;;;7.47;5.38;;;;;;;;;;10067835;28;20051;-73
2023/08/10 12:24:00;;;;;;;7.25;5.45;;;;;;;;;;10009011;29;20101;-72
2023/08/10 12:28:57;;;;;;;8.57;5.38;;;;;;;;;;10066556;28;20048;-73
2023/08/10 12:33:56;;;;;;;9.13;5.32;;;;;;;;;;10004981;28;20063;-73
2023/08/10 12:38:54;;;;;;;6.75;5.28;;;;;;;;;;10032316;28;20076;-73
2023/08/10 12:43:51;;;;;;;7.22;5.22;;;;;;;;;;10003410;28;20073;-73
2023/08/10 12:48:47;;;;;;;10.55;5.63;;;;;;;;;;10037484;28;20422;-73
2023/08/10 12:53:45;;;;;;;7.53;5.28;;;;;;;;;;10034866;28;20484;-72
2023/08/10 12:58:41;;;;;;;6.93;5.47;;;;;;;;;;9993055;28;20064;-73
2023/08/10 13:03:37;;;;;;;8.80;6.43;;;;;;;;;;10003050;28;20086;-72
2023/08/10 13:08:34;;;;;;;8.32;5.25;;;;;;;;;;10066331;28;20509;-72
2023/08/10 13:13:30;;;;;;;11.98;5.10;;;;;;;;;;10034835;28;20051;-72
2023/08/10 13:18:27;;;;;;;6.20;5.50;;;;;;;;;;10035607;28;20485;-72
2023/08/10 13:23:23;;;;;;;6.95;5.25;;;;;;;;;;10037662;28;20086;-72
2023/08/10 13:28:20;;;;;;;6.22;5.20;;;;;;;;;;10069597;28;20082;-73
2023/08/10 13:33:17;;;;;;;9.38;5.30;;;;;;;;;;10036988;28;20071;-73
2023/08/10 13:38:13;;;;;;;13.98;5.30;;;;;;;;;;10054369;28;20048;-72
2023/08/10 13:43:09;;;;;;;7.72;5.65;;;;;;;;;;9998149;28;20067;-72
2023/08/10 13:48:06;;;;;;;9.15;5.40;;;;;;;;;;10018158;29;20066;-73
2023/08/10 13:53:03;;;;;;;9.18;6.22;;;;;;;;;;9996319;28;20052;-73
2023/08/10 13:58:00;;;;;;;6.15;5.03;;;;;;;;;;10032943;28;20126;-72
2023/08/10 14:02:56;;;;;;;8.07;5.60;;;;;;;;;;10026172;28;20511;-72
2023/08/10 14:07:52;;;;;;;6.30;5.65;;;;;;;;;;10071100;28;20059;-72
2023/08/10 14:12:49;;;;;;;9.75;6.00;;;;;;;;;;10022239;28;20052;-72
2023/08/10 14:17:45;;;;;;;7.00;5.80;;;;;;;;;;10069013;28;20078;-73
2023/08/10 14:22:41;;;;;;;7.88;5.82;;;;;;;;;;10039446;28;20051;-72
2023/08/10 14:27:37;;;;;;;7.75;5.55;;;;;;;;;;10068323;28;20052;-72
2023/08/10 14:32:34;;;;;;;8.23;5.40;;;;;;;;;;9995016;28;20107;-72
2023/08/10 14:37:30;;;;;;;8.10;5.80;;;;;;;;;;10044271;28;20147;-72
2023/08/10 14:42:27;;;;;;;9.95;5.78;;;;;;;;;;9994273;28;20048;-72
2023/08/10 14:47:23;;;;;;;6.90;5.07;;;;;;;;;;10028121;28;20056;-72
2023/08/10 14:52:19;;;;;;;7.90;5.18;;;;;;;;;;9994308;28;20064;-73
2023/08/10 14:57:16;;;;;;;8.15;5.85;;;;;;;;;;10003421;28;20059;-72
2023/08/10 15:02:12;;;;;;;10.00;5.90;;;;;;;;;;9995419;28;20477;-72
2023/08/10 15:07:09;;;;;;;8.35;6.07;;;;;;;;;;10064334;28;20066;-72
2023/08/10 15:12:05;;;;;;;9.60;5.72;;;;;;;;;;10056131;28;20098;-72
2023/08/10 15:17:02;;;;;;;6.35;5.22;;;;;;;;;;10062828;28;20055;-72
2023/08/10 15:21:58;;;;;;;8.43;5.07;;;;;;;;;;10042822;28;20122;-72
2023/08/10 15:26:54;;;;;;;5.60;4.97;;;;;;;;;;10053194;28;20078;-71
2023/08/10 15:31:51;;;;;;;7.28;5.13;;;;;;;;;;10013766;28;20071;-71
2023/08/10 15:36:47;;;;;;;14.95;6.05;;;;;;;;;;10051493;28;20055;-71
2023/08/10 15:41:43;;;;;;;8.90;5.45;;;;;;;;;;10002855;28;20048;-72
2023/08/10 15:46:39;;;;;;;8.02;5.30;;;;;;;;;;10038234;28;20568;-71
2023/08/10 15:51:38;;;;;;;8.25;5.47;;;;;;;;;;10030253;28;20080;-71
2023/08/10 15:56:34;;;;;;;6.97;4.93;;;;;;;;;;10027796;28;20059;-71
2023/08/10 16:01:31;;;;;;;6.07;5.13;;;;;;;;;;10006696;28;20052;-71
2023/08/10 16:06:28;;;;;;;7.80;4.80;;;;;;;;;;10046158;28;20559;-71
2023/08/10 16:11:25;;;;;;;5.80;5.10;;;;;;;;;;10069627;28;20051;-70
2023/08/10 16:16:21;;;;;;;9.40;5.30;;;;;;;;;;10044348;28;20105;-71
2023/08/10 16:21:17;;;;;;;8.30;4.93;;;;;;;;;;10059864;28;20114;-71
2023/08/10 16:26:14;;;;;;;6.50;5.43;;;;;;;;;;10041670;28;20051;-72
2023/08/10 16:31:10;;;;;;;7.50;5.88;;;;;;;;;;10033312;28;20098;-72
2023/08/10 16:36:06;;;;;;;8.50;6.03;;;;;;;;;;10039755;28;20135;-72
2023/08/10 16:41:03;;;;;;;6.63;5.82;;;;;;;;;;10026298;28;20258;-72
2023/08/10 16:45:59;;;;;;;6.65;5.65;;;;;;;;;;10040642;28;20055;-71
2023/08/10 16:50:56;;;;;;;7.15;5.55;;;;;;;;;;9998010;28;20056;-72
2023/08/10 16:55:52;;;;;;;6.05;5.30;;;;;;;;;;10031795;28;20449;-71
2023/08/10 17:00:52;;;;;;;6.43;5.30;;;;;;;;;;9997323;28;20146;-71
2023/08/10 17:05:49;;;;;;;7.55;5.43;;;;;;;;;;10015355;28;20052;-71
2023/08/10 17:16:31;;;;;;;12.65;7.57;;;;;;;;;;10060836;28;20051;-72
2023/08/10 17:21:28;;;;;;;7.50;5.90;;;;;;;;;;10035238;29;20052;-72
2023/08/10 17:26:25;;;;;;;11.52;5.18;;;;;;;;;;10065119;28;20077;-72
2023/08/10 17:31:21;;;;;;;7.95;4.82;;;;;;;;;;10073606;28;20472;-71
2023/08/10 17:36:17;;;;;;;14.73;5.70;;;;;;;;;;10073213;28;20128;-71
2023/08/10 17:41:14;;;;;;;7.72;5.25;;;;;;;;;;10072427;28;20051;-71
2023/08/10 17:46:10;;;;;;;6.82;5.50;;;;;;;;;;10059053;28;20471;-71
2023/08/10 17:51:06;;;;;;;8.27;5.57;;;;;;;;;;10072659;28;20193;-71
2023/08/10 17:56:03;;;;;;;6.20;5.40;;;;;;;;;;10073433;28;20055;-72
2023/08/10 18:01:04;;;;;;;8.23;5.05;;;;;;;;;;10057311;28;20101;-71
2023/08/10 18:06:01;;;;;;;10.50;6.35;;;;;;;;;;10056989;28;20517;-71
2023/08/10 18:10:57;;;;;;;5.10;4.63;;;;;;;;;;10072433;28;20058;-71
2023/08/10 18:15:53;;;;;;;8.07;5.82;;;;;;;;;;10068376;28;20121;-71
2023/08/10 18:20:50;;;;;;;8.57;4.95;;;;;;;;;;10033782;28;20056;-71
2023/08/10 18:25:46;;;;;;;6.80;4.53;;;;;;;;;;10052860;28;20048;-71
2023/08/10 18:30:43;;;;;;;5.70;4.40;;;;;;;;;;10072336;28;20047;-71
2023/08/10 18:35:39;;;;;;;5.50;4.63;;;;;;;;;;10071864;28;20102;-71
2023/08/10 18:40:38;;;;;;;5.97;5.40;;;;;;;;;;10195010;23;20108;-71
2023/08/10 18:45:35;;;;;;;6.05;4.72;;;;;;;;;;10223845;28;20053;-72
2023/08/10 18:50:31;;;;;;;5.82;4.93;;;;;;;;;;10236721;28;20052;-72
2023/08/10 18:55:28;;;;;;;6.72;4.72;;;;;;;;;;10234921;28;20049;-71
2023/08/10 19:00:24;;;;;;;5.93;4.97;;;;;;;;;;10234936;28;20064;-71
2023/08/10 19:05:21;;;;;;;6.97;4.60;;;;;;;;;;10214293;28;20056;-71
2023/08/10 19:10:17;;;;;;;8.95;5.03;;;;;;;;;;10233965;28;20376;-71
2023/08/10 19:15:13;;;;;;;8.32;6.03;;;;;;;;;;10235376;28;20054;-71
2023/08/10 19:20:10;;;;;;;10.60;6.78;;;;;;;;;;10235125;28;20049;-71
2023/08/10 19:25:06;;;;;;;8.77;6.50;;;;;;;;;;10235205;28;20062;-70
2023/08/10 19:30:05;;;;;;;6.20;5.60;;;;;;;;;;10234967;28;20137;-71
2023/08/10 19:35:01;;;;;;;8.80;6.32;;;;;;;;;;10235529;28;20061;-71
2023/08/10 19:39:58;;;;;;;8.13;6.43;;;;;;;;;;10234447;28;20547;-71
2023/08/10 19:44:54;;;;;;;8.82;6.70;;;;;;;;;;10234107;28;20050;-71
2023/08/10 19:49:51;;;;;;;7.88;6.20;;;;;;;;;;10233761;28;20060;-71
2023/08/10 19:54:47;;;;;;;8.35;6.28;;;;;;;;;;10234034;28;20103;-70
2023/08/10 19:59:43;;;;;;;12.70;6.50;;;;;;;;;;10197543;28;20460;-71
2023/08/10 20:04:40;;;;;;;8.77;7.35;;;;;;;;;;10206803;28;20045;-71
2023/08/10 20:09:36;;;;;;;9.60;7.03;;;;;;;;;;10232924;28;20466;-71
2023/08/10 20:14:32;;;;;;;9.85;6.30;;;;;;;;;;10242254;28;20667;-71
2023/08/10 20:19:28;;;;;;;6.45;5.85;;;;;;;;;;10239792;28;20058;-71
2023/08/10 20:24:26;;;;;;;9.18;6.47;;;;;;;;;;10241127;28;20092;-71
2023/08/10 20:29:23;;;;;;;9.27;6.30;;;;;;;;;;10241148;28;20049;-70
2023/08/10 20:34:19;;;;;;;9.32;5.95;;;;;;;;;;10241022;28;20594;-70
2023/08/10 20:39:15;;;;;;;8.95;6.18;;;;;;;;;;10241051;28;20057;-71
2023/08/10 20:44:12;;;;;;;11.65;6.38;;;;;;;;;;10240509;28;20104;-70
2023/08/10 20:49:10;;;;;;;7.40;6.57;;;;;;;;;;10240122;28;20478;-71
2023/08/10 20:54:06;;;;;;;9.40;6.53;;;;;;;;;;10240331;28;20111;-71
2023/08/10 20:59:03;;;;;;;9.13;5.68;;;;;;;;;;10239687;28;20055;-71
2023/08/10 21:03:59;;;;;;;9.50;6.15;;;;;;;;;;10240199;28;20104;-71
2023/08/10 21:08:56;;;;;;;7.00;6.10;;;;;;;;;;10219053;28;20049;-70
2023/08/10 21:13:52;;;;;;;7.30;6.10;;;;;;;;;;10206751;28;20124;-70
2023/08/10 21:18:49;;;;;;;7.10;6.30;;;;;;;;;;10204847;28;20072;-70
2023/08/10 21:23:45;;;;;;;12.07;6.65;;;;;;;;;;10204350;28;20617;-70
2023/08/10 21:28:41;;;;;;;8.45;6.65;;;;;;;;;;10238666;28;20053;-71
2023/08/10 21:33:39;;;;;;;7.82;7.05;;;;;;;;;;10238638;28;21030;-70
2023/08/10 21:38:36;;;;;;;8.10;6.35;;;;;;;;;;10237573;28;20050;-70
2023/08/10 21:43:32;;;;;;;7.80;7.00;;;;;;;;;;10237774;28;20049;-70
2023/08/10 21:48:29;;;;;;;8.68;7.50;;;;;;;;;;10238029;28;20111;-70
2023/08/10 21:53:25;;;;;;;8.80;7.28;;;;;;;;;;10228621;28;20049;-70
2023/08/10 21:58:21;;;;;;;9.90;6.95;;;;;;;;;;10238220;28;20148;-70
2023/08/10 22:03:18;;;;;;;8.25;6.95;;;;;;;;;;10213107;28;20061;-70
2023/08/10 22:08:14;;;;;;;8.60;7.30;;;;;;;;;;10237015;28;20056;-71
2023/08/10 22:13:11;;;;;;;10.05;7.40;;;;;;;;;;10236573;28;20056;-70
2023/08/10 22:18:07;;;;;;;9.38;7.53;;;;;;;;;;10229281;28;20050;-71
2023/08/10 22:23:04;;;;;;;7.57;6.88;;;;;;;;;;10196596;28;20506;-71
2023/08/10 22:28:03;;;;;;;9.02;7.53;;;;;;;;;;10236299;28;20556;-70
2023/08/10 22:32:59;;;;;;;8.05;7.35;;;;;;;;;;10237332;28;20064;-71
2023/08/10 22:37:56;;;;;;;8.90;8.00;;;;;;;;;;10235978;28;20423;-71
2023/08/10 22:42:52;;;;;;;10.32;8.15;;;;;;;;;;10236790;28;20046;-71
2023/08/10 22:47:49;;;;;;;9.50;7.68;;;;;;;;;;10235656;28;20056;-71
2023/08/10 22:52:45;;;;;;;9.98;7.88;;;;;;;;;;10236227;28;20132;-70
2023/08/10 22:57:41;;;;;;;11.90;8.27;;;;;;;;;;10235032;28;20073;-71
2023/08/10 23:02:38;;;;;;;14.30;7.85;;;;;;;;;;10235532;28;20459;-70
2023/08/10 23:07:34;;;;;;;8.88;7.72;;;;;;;;;;10235021;28;20060;-71
2023/08/10 23:12:31;;;;;;;9.35;8.38;;;;;;;;;;10235199;28;20050;-71
2023/08/10 23:17:29;;;;;;;12.57;8.57;;;;;;;;;;10235076;28;20045;-71
2023/08/10 23:22:25;;;;;;;13.02;8.93;;;;;;;;;;10233375;28;20053;-71
2023/08/10 23:27:21;;;;;;;12.52;9.13;;;;;;;;;;10229537;28;20084;-71
2023/08/10 23:32:20;;;;;;;12.77;9.07;;;;;;;;;;10234629;28;20061;-71
2023/08/10 23:37:17;;;;;;;10.85;8.50;;;;;;;;;;10231934;28;20423;-70
2023/08/10 23:42:13;;;;;;;11.30;8.75;;;;;;;;;;10234250;28;20059;-71
2023/08/10 23:47:09;;;;;;;12.00;9.38;;;;;;;;;;10232892;28;20056;-71
2023/08/10 23:52:12;;;;;;;14.40;9.55;;;;;;;;;;10233874;28;20132;-71
2023/08/10 23:57:10;;;;;;;10.35;9.05;;;;;;;;;;10232596;28;20107;-71
